createdAt,value
2018-09-08T00:02:27.560Z,4.30
2018-09-08T00:04:56.588Z,4.17
2018-09-08T00:07:30.894Z,4.30
2018-09-08T00:09:59.976Z,5.10
2018-09-08T00:12:29.080Z,4.77
2018-09-08T00:15:03.413Z,4.73
2018-09-08T00:17:37.854Z,5.13
2018-09-08T00:20:12.255Z,4.67
2018-09-08T00:22:53.020Z,4.80
2018-09-08T00:25:27.576Z,4.30
2018-09-08T00:28:02.113Z,4.57
2018-09-08T00:30:31.156Z,4.70
2018-09-08T00:33:00.174Z,4.30
2018-09-08T00:35:29.200Z,4.73
2018-09-08T00:37:58.237Z,4.97
2018-09-08T00:40:27.243Z,4.83
2018-09-08T00:42:56.280Z,5.50
2018-09-08T00:45:25.368Z,5.67
2018-09-08T00:47:54.397Z,4.97
2018-09-08T00:50:23.434Z,4.90
2018-09-08T00:52:52.620Z,4.90
2018-09-08T00:55:21.642Z,5.70
2018-09-08T00:57:50.865Z,4.97
2018-09-08T01:00:19.879Z,5.30
2018-09-08T01:02:48.890Z,5.37
2018-09-08T01:05:17.876Z,4.60
2018-09-08T01:07:47.018Z,4.60
2018-09-08T01:10:16.125Z,5.40
2018-09-08T01:12:45.165Z,4.93
2018-09-08T01:15:14.187Z,5.10
2018-09-08T01:17:43.198Z,5.20
2018-09-08T01:20:12.255Z,5.70
2018-09-08T01:22:42.207Z,5.37
2018-09-08T01:25:11.218Z,5.77
2018-09-08T01:27:40.285Z,5.50
2018-09-08T01:30:09.310Z,5.53
2018-09-08T01:32:38.414Z,4.90
2018-09-08T01:35:07.470Z,5.57
2018-09-08T01:37:36.500Z,5.90
2018-09-08T01:40:06.448Z,5.70
2018-09-08T01:42:35.458Z,4.40
2018-09-08T01:45:04.801Z,5.73
2018-09-08T01:47:33.831Z,5.73
2018-09-08T01:50:02.865Z,5.23
2018-09-08T01:52:31.880Z,5.40
2018-09-08T01:55:00.941Z,4.87
2018-09-08T01:57:29.936Z,4.50
2018-09-08T01:59:59.059Z,4.80
2018-09-08T02:02:28.114Z,5.10
2018-09-08T02:04:57.112Z,5.10
2018-09-08T02:07:26.167Z,4.90
2018-09-08T02:09:55.435Z,5.10
2018-09-08T02:12:24.449Z,4.90
2018-09-08T02:14:53.470Z,4.53
2018-09-08T02:17:22.537Z,4.70
2018-09-08T02:19:51.993Z,5.03
2018-09-08T02:22:21.001Z,4.73
2018-09-08T02:24:50.425Z,5.50
2018-09-08T02:27:19.422Z,4.80
2018-09-08T02:29:48.426Z,4.30
2018-09-08T02:32:17.563Z,4.50
2018-09-08T02:34:46.631Z,5.27
2018-09-08T02:37:15.658Z,5.30
2018-09-08T02:39:44.668Z,5.20
2018-09-08T02:42:13.745Z,5.70
2018-09-08T02:44:42.765Z,5.50
2018-09-08T02:47:11.872Z,5.67
2018-09-08T02:49:52.457Z,5.70
2018-09-08T02:52:20.348Z,5.93
2018-09-08T02:54:48.293Z,6.50
2018-09-08T02:57:16.250Z,7.17
2018-09-08T02:59:44.189Z,6.07
2018-09-08T03:02:12.109Z,6.27
2018-09-08T03:04:40.116Z,6.30
2018-09-08T03:07:12.981Z,6.50
2018-09-08T03:09:42.974Z,6.37
2018-09-08T03:12:10.889Z,6.83
2018-09-08T03:14:39.168Z,6.43
2018-09-08T03:17:07.612Z,6.10
2018-09-08T03:19:35.573Z,6.70
2018-09-08T03:22:03.715Z,6.40
2018-09-08T03:24:31.659Z,6.93
2018-09-08T03:26:59.615Z,6.83
2018-09-08T03:29:27.557Z,7.10
2018-09-08T03:31:55.455Z,7.10
2018-09-08T03:34:23.384Z,6.50
2018-09-08T03:36:51.484Z,6.83
2018-09-08T03:39:19.397Z,7.33
2018-09-08T03:41:47.285Z,6.83
2018-09-08T03:44:15.263Z,6.90
2018-09-08T03:46:43.189Z,7.47
2018-09-08T03:49:12.817Z,7.30
2018-09-08T03:51:40.732Z,6.37
2018-09-08T03:54:08.673Z,6.30
2018-09-08T03:56:36.597Z,6.37
2018-09-08T03:59:04.725Z,6.80
2018-09-08T04:01:32.614Z,6.30
2018-09-08T04:04:01.666Z,6.90
2018-09-08T04:06:32.338Z,6.70
2018-09-08T04:09:01.401Z,6.57
2018-09-08T04:11:30.410Z,7.20
2018-09-08T04:13:59.526Z,6.80
2018-09-08T04:16:28.632Z,7.00
2018-09-08T04:18:57.675Z,6.90
2018-09-08T04:21:26.742Z,6.30
2018-09-08T04:23:55.796Z,7.23
2018-09-08T04:26:24.908Z,6.40
2018-09-08T04:28:53.906Z,7.30
2018-09-08T04:31:22.950Z,6.43
2018-09-08T04:33:51.941Z,6.97
2018-09-08T04:36:20.949Z,6.20
2018-09-08T04:38:49.977Z,7.27
2018-09-08T04:41:19.000Z,7.20
2018-09-08T04:43:47.996Z,6.83
2018-09-08T04:46:17.035Z,7.03
2018-09-08T04:48:46.131Z,7.87
2018-09-08T04:51:15.169Z,6.90
2018-09-08T04:53:44.152Z,7.00
2018-09-08T04:56:14.009Z,6.80
2018-09-08T04:58:43.108Z,6.50
2018-09-08T05:01:12.306Z,7.20
2018-09-08T05:03:41.319Z,6.87
2018-09-08T05:06:10.300Z,6.93
2018-09-08T05:08:39.607Z,7.07
2018-09-08T05:11:09.584Z,6.77
2018-09-08T05:13:39.002Z,7.60
2018-09-08T05:16:08.286Z,7.00
2018-09-08T05:18:37.277Z,7.53
2018-09-08T05:21:06.289Z,6.80
2018-09-08T05:23:35.250Z,7.03
2018-09-08T05:26:04.330Z,6.70
2018-09-08T05:28:33.358Z,6.83
2018-09-08T05:31:02.348Z,6.50
2018-09-08T05:33:31.382Z,5.80
2018-09-08T05:36:00.401Z,6.70
2018-09-08T05:38:29.386Z,6.33
2018-09-08T05:40:58.360Z,6.50
2018-09-08T05:43:27.347Z,6.40
2018-09-08T05:45:56.344Z,6.37
2018-09-08T05:48:25.367Z,6.27
2018-09-08T05:50:55.389Z,6.60
2018-09-08T05:53:24.347Z,6.20
2018-09-08T05:55:53.310Z,5.87
2018-09-08T05:58:22.343Z,5.50
2018-09-08T06:00:51.381Z,6.43
2018-09-08T06:03:20.346Z,5.70
2018-09-08T06:05:49.302Z,5.13
2018-09-08T06:08:18.394Z,4.80
2018-09-08T06:10:47.357Z,5.10
2018-09-08T06:13:16.989Z,4.97
2018-09-08T06:15:46.828Z,5.10
2018-09-08T06:18:15.840Z,4.60
2018-09-08T06:20:44.814Z,4.90
2018-09-08T06:23:13.791Z,4.77
2018-09-08T06:25:42.809Z,4.90
2018-09-08T06:28:11.788Z,4.57
2018-09-08T06:30:40.742Z,5.10
2018-09-08T06:33:09.761Z,5.07
2018-09-08T06:35:38.730Z,4.70
2018-09-08T06:38:08.565Z,4.73
2018-09-08T06:40:37.648Z,4.20
2018-09-08T06:43:06.690Z,4.90
2018-09-08T06:45:35.668Z,4.80
2018-09-08T06:48:04.800Z,4.53
2018-09-08T06:50:35.081Z,4.63
2018-09-08T06:53:04.105Z,4.70
2018-09-08T06:55:34.456Z,4.33
2018-09-08T06:58:03.514Z,4.20
2018-09-08T07:00:32.441Z,4.90
2018-09-08T07:03:02.432Z,4.13
2018-09-08T07:05:31.251Z,5.03
2018-09-08T07:07:59.988Z,4.63
2018-09-08T07:10:28.611Z,4.73
2018-09-08T07:13:02.551Z,4.83
2018-09-08T07:15:33.300Z,3.90
2018-09-08T07:18:02.435Z,4.27
2018-09-08T07:20:31.476Z,4.07
2018-09-08T07:23:00.095Z,3.97
2018-09-08T07:25:28.673Z,4.40
2018-09-08T07:27:57.246Z,3.60
2018-09-08T07:30:30.269Z,3.50
2018-09-08T07:32:59.273Z,3.77
2018-09-08T07:35:28.229Z,4.20
2018-09-08T07:40:56.884Z,3.90
2018-09-08T07:43:28.067Z,4.33
2018-09-08T07:45:57.044Z,4.93
2018-09-08T07:48:27.607Z,5.10
2018-09-08T07:50:56.664Z,4.33
2018-09-08T07:53:25.730Z,4.10
2018-09-08T07:55:54.655Z,4.40
2018-09-08T07:58:23.727Z,4.20
2018-09-08T08:00:52.943Z,4.20
2018-09-08T08:03:21.985Z,4.53
2018-09-08T08:05:50.950Z,4.17
2018-09-08T08:08:21.141Z,4.37
2018-09-08T08:10:50.131Z,4.70
2018-09-08T08:13:19.132Z,4.20
2018-09-08T08:15:48.863Z,3.67
2018-09-08T08:18:17.887Z,3.60
2018-09-08T08:20:46.849Z,3.30
2018-09-08T08:23:15.872Z,3.77
2018-09-08T08:25:44.879Z,3.40
2018-09-08T08:28:13.883Z,3.00
2018-09-08T08:30:42.873Z,3.40
2018-09-08T08:33:11.891Z,3.60
2018-09-08T08:35:40.883Z,2.90
2018-09-08T08:38:09.887Z,2.87
2018-09-08T08:40:38.984Z,4.17
2018-09-08T08:43:08.055Z,3.30
2018-09-08T08:45:37.031Z,3.30
2018-09-08T08:48:06.041Z,3.20
2018-09-08T08:50:46.463Z,2.83
2018-09-08T08:54:30.613Z,3.20
2018-09-08T08:56:59.637Z,2.70
2018-09-08T08:59:28.638Z,3.37
2018-09-08T09:01:57.640Z,3.30
2018-09-08T09:04:26.992Z,3.13
2018-09-08T09:06:56.021Z,2.30
2018-09-08T09:09:25.042Z,2.80
2018-09-08T09:11:54.486Z,3.00
2018-09-08T09:14:23.086Z,2.57
2018-09-08T09:16:52.135Z,3.13
2018-09-08T09:20:32.166Z,2.73
2018-09-08T09:24:15.180Z,2.67
2018-09-08T09:26:44.087Z,2.33
2018-09-08T09:29:13.103Z,2.60
2018-09-08T09:31:42.350Z,2.53
2018-09-08T09:34:11.857Z,2.77
2018-09-08T09:36:41.872Z,2.23
2018-09-08T09:39:12.884Z,2.33
2018-09-08T09:41:42.835Z,2.10
2018-09-08T09:44:12.252Z,3.50
2018-09-08T09:46:41.849Z,2.70
2018-09-08T09:49:11.340Z,2.40
2018-09-08T09:51:40.340Z,2.30
2018-09-08T09:54:09.332Z,2.80
2018-09-08T09:56:38.392Z,2.30
2018-09-08T09:59:07.418Z,2.90
2018-09-08T10:01:41.741Z,3.07
2018-09-08T10:04:11.306Z,2.63
2018-09-08T10:06:40.430Z,3.17
2018-09-08T10:09:09.501Z,2.90
2018-09-08T10:11:38.676Z,2.60
2018-09-08T10:14:07.748Z,2.90
2018-09-08T10:16:36.840Z,2.77
2018-09-08T10:19:05.870Z,2.90
2018-09-08T10:21:34.921Z,3.33
2018-09-08T10:24:05.152Z,3.10
2018-09-08T10:26:32.987Z,3.50
2018-09-08T10:29:02.014Z,3.30
2018-09-08T10:31:31.100Z,2.50
2018-09-08T10:34:00.092Z,2.70
2018-09-08T10:36:29.102Z,2.63
2018-09-08T10:38:58.078Z,2.70
2018-09-08T10:41:27.135Z,3.10
2018-09-08T10:43:56.138Z,2.63
2018-09-08T10:46:25.160Z,2.57
2018-09-08T10:48:54.160Z,2.50
2018-09-08T10:52:04.422Z,2.70
2018-09-08T10:54:33.432Z,2.47
2018-09-08T10:57:02.478Z,2.50
2018-09-08T10:59:31.509Z,2.47
2018-09-08T11:02:00.650Z,3.47
2018-09-08T11:04:29.520Z,3.10
2018-09-08T11:06:58.547Z,2.60
2018-09-08T11:09:27.613Z,2.90
2018-09-08T11:11:56.672Z,3.60
2018-09-08T11:14:25.684Z,2.37
2018-09-08T11:16:54.691Z,2.93
2018-09-08T11:19:23.911Z,2.83
2018-09-08T11:21:52.982Z,2.97
2018-09-08T11:24:22.002Z,2.70
2018-09-08T11:26:51.038Z,2.80
2018-09-08T11:29:20.104Z,2.47
2018-09-08T11:31:53.029Z,2.60
2018-09-08T11:34:23.258Z,2.40
2018-09-08T11:36:52.264Z,2.37
2018-09-08T11:39:21.235Z,3.30
2018-09-08T11:41:50.179Z,3.70
2018-09-08T11:44:19.133Z,2.53
2018-09-08T11:46:49.482Z,2.70
2018-09-08T11:49:18.515Z,3.00
2018-09-08T11:51:47.463Z,2.83
2018-09-08T11:54:16.442Z,2.80
2018-09-08T11:56:45.381Z,2.97
2018-09-08T11:59:14.353Z,2.60
2018-09-08T12:01:44.235Z,2.27
2018-09-08T12:04:13.201Z,2.43
2018-09-08T12:06:42.479Z,2.90
2018-09-08T12:09:12.514Z,3.00
2018-09-08T12:11:41.574Z,2.43
2018-09-08T12:14:11.021Z,2.80
2018-09-08T12:16:41.279Z,3.03
2018-09-08T12:19:10.347Z,2.90
2018-09-08T12:21:39.344Z,2.73
2018-09-08T12:24:08.313Z,3.57
2018-09-08T12:26:37.256Z,2.43
2018-09-08T12:29:07.339Z,2.30
2018-09-08T12:31:37.465Z,3.07
2018-09-08T12:34:09.431Z,2.37
2018-09-08T12:36:38.388Z,2.50
2018-09-08T12:39:08.196Z,2.63
2018-09-08T12:41:37.167Z,2.70
2018-09-08T12:44:10.129Z,2.33
2018-09-08T12:46:39.062Z,2.70
2018-09-08T12:49:08.030Z,2.40
2018-09-08T12:51:37.021Z,3.07
2018-09-08T12:54:05.977Z,2.53
2018-09-08T12:56:34.955Z,2.50
2018-09-08T12:59:04.000Z,2.40
2018-09-08T13:01:32.911Z,2.50
2018-09-08T13:04:02.363Z,2.50
2018-09-08T13:06:32.524Z,2.20
2018-09-08T13:09:01.595Z,2.70
2018-09-08T13:11:30.607Z,2.30
2018-09-08T13:13:59.583Z,2.30
2018-09-08T13:16:28.595Z,2.77
2018-09-08T13:18:57.533Z,2.50
2018-09-08T13:21:26.758Z,2.30
2018-09-08T13:23:55.952Z,2.53
2018-09-08T13:26:24.911Z,2.20
2018-09-08T13:28:54.255Z,2.10
2018-09-08T13:31:23.266Z,2.57
2018-09-08T13:33:52.321Z,2.20
2018-09-08T13:36:21.335Z,2.23
2018-09-08T13:38:50.310Z,2.33
2018-09-08T13:41:19.435Z,2.00
2018-09-08T13:43:48.436Z,2.50
2018-09-08T13:46:17.412Z,1.97
2018-09-08T13:48:46.388Z,2.47
2018-09-08T13:51:15.384Z,2.50
2018-09-08T13:53:44.570Z,2.77
2018-09-08T13:56:13.612Z,2.50
2018-09-08T13:58:42.622Z,2.60
2018-09-08T14:01:14.444Z,2.70
2018-09-08T14:03:43.420Z,2.50
2018-09-08T14:06:12.399Z,2.40
2018-09-08T14:08:41.443Z,2.20
2018-09-08T14:11:11.240Z,2.17
2018-09-08T14:13:40.234Z,2.07
2018-09-08T14:16:09.217Z,2.57
2018-09-08T14:18:38.214Z,2.60
2018-09-08T14:21:07.250Z,2.93
2018-09-08T14:23:36.231Z,2.17
2018-09-08T14:26:05.271Z,2.00
2018-09-08T14:28:34.285Z,2.20
2018-09-08T14:31:03.704Z,1.90
2018-09-08T14:33:32.862Z,2.20
2018-09-08T14:36:01.831Z,1.87
2018-09-08T14:38:31.003Z,2.00
2018-09-08T14:40:59.989Z,2.20
2018-09-08T14:43:29.032Z,1.77
2018-09-08T14:45:58.028Z,2.20
2018-09-08T14:48:27.090Z,2.30
2018-09-08T14:50:56.156Z,2.03
2018-09-08T14:53:25.528Z,1.97
2018-09-08T14:55:54.878Z,2.00
2018-09-08T14:58:23.879Z,2.00
2018-09-08T15:00:52.934Z,1.97
2018-09-08T15:03:21.923Z,2.40
2018-09-08T15:05:50.970Z,2.10
2018-09-08T15:08:19.997Z,2.00
2018-09-08T15:10:48.959Z,1.90
2018-09-08T15:13:18.036Z,1.87
2018-09-08T15:15:47.030Z,2.47
2018-09-08T15:18:16.067Z,2.10
2018-09-08T15:20:45.112Z,2.10
2018-09-08T15:23:14.181Z,1.97
2018-09-08T15:25:43.235Z,2.17
2018-09-08T15:28:12.358Z,1.50
2018-09-08T15:30:41.336Z,1.83
2018-09-08T15:33:10.396Z,1.80
2018-09-08T15:35:39.396Z,1.80
2018-09-08T15:38:08.374Z,1.70
2018-09-08T15:40:37.346Z,1.70
2018-09-08T15:43:07.134Z,1.70
2018-09-08T15:45:37.338Z,1.77
2018-09-08T15:48:06.458Z,1.93
2018-09-08T15:50:35.417Z,2.00
2018-09-08T15:53:06.833Z,1.90
2018-09-08T15:55:35.788Z,1.93
2018-09-08T15:58:05.315Z,2.00
2018-09-08T16:00:35.303Z,1.70
2018-09-08T16:03:05.916Z,1.63
2018-09-08T16:05:34.890Z,1.80
2018-09-08T16:08:05.729Z,1.67
2018-09-08T16:10:39.309Z,1.63
2018-09-08T16:13:08.743Z,1.80
2018-09-08T16:15:37.777Z,2.30
2018-09-08T16:18:06.999Z,1.40
2018-09-08T16:20:36.931Z,1.60
2018-09-08T16:23:06.348Z,1.47
2018-09-08T16:25:35.345Z,1.77
2018-09-08T16:28:04.368Z,1.70
2018-09-08T16:30:33.350Z,1.60
2018-09-08T16:33:02.486Z,1.77
2018-09-08T16:35:31.995Z,1.80
2018-09-08T16:38:01.514Z,1.77
2018-09-08T16:40:30.568Z,2.87
2018-09-08T16:42:59.565Z,2.07
2018-09-08T16:45:28.617Z,1.67
2018-09-08T16:47:57.632Z,2.07
2018-09-08T16:50:26.642Z,2.10
2018-09-08T16:52:55.636Z,1.57
2018-09-08T16:55:24.650Z,1.73
2018-09-08T16:57:53.655Z,1.80
2018-09-08T17:00:23.083Z,1.80
2018-09-08T17:02:52.187Z,1.80
2018-09-08T17:05:21.203Z,1.73
2018-09-08T17:07:50.140Z,1.80
2018-09-08T17:10:19.124Z,1.83
2018-09-08T17:12:48.488Z,1.60
2018-09-08T17:15:17.456Z,1.60
2018-09-08T17:17:46.413Z,1.53
2018-09-08T17:20:17.214Z,1.70
2018-09-08T17:22:46.190Z,1.87
2018-09-08T17:25:15.166Z,1.77
2018-09-08T17:27:46.298Z,1.63
2018-09-08T17:30:16.511Z,1.63
2018-09-08T17:32:45.575Z,1.40
2018-09-08T17:35:14.554Z,2.20
2018-09-08T17:37:43.587Z,2.50
2018-09-08T17:40:12.662Z,2.77
2018-09-08T17:42:46.303Z,1.80
2018-09-08T17:45:15.410Z,1.97
2018-09-08T17:47:44.433Z,1.90
2018-09-08T17:50:14.078Z,2.23
2018-09-08T17:52:43.066Z,2.00
2018-09-08T17:55:12.793Z,2.97
2018-09-08T17:57:41.942Z,1.60
2018-09-08T18:00:12.244Z,1.60
2018-09-08T18:02:54.190Z,2.93
2018-09-08T18:05:25.071Z,2.10
2018-09-08T18:07:56.196Z,2.23
2018-09-08T18:10:28.616Z,2.40
2018-09-08T18:13:04.790Z,2.20
2018-09-08T18:15:34.206Z,2.20
2018-09-08T18:18:07.627Z,1.87
2018-09-08T18:20:39.477Z,2.53
2018-09-08T18:23:12.650Z,2.40
2018-09-08T18:25:45.834Z,1.83
2018-09-08T18:28:15.116Z,2.07
2018-09-08T18:30:44.138Z,3.83
2018-09-08T18:33:13.173Z,2.60
2018-09-08T18:35:42.174Z,2.17
2018-09-08T18:38:11.168Z,1.90
2018-09-08T18:40:40.291Z,2.10
2018-09-08T18:43:09.269Z,2.40
2018-09-08T18:45:38.298Z,2.20
2018-09-08T18:48:07.370Z,2.47
2018-09-08T18:50:36.455Z,2.37
2018-09-08T18:53:06.081Z,2.60
2018-09-08T18:55:35.091Z,2.30
2018-09-08T18:58:04.297Z,2.90
2018-09-08T19:00:33.682Z,2.37
2018-09-08T19:03:02.669Z,2.80
2018-09-08T19:05:31.681Z,3.03
2018-09-08T19:08:00.706Z,3.03
2018-09-08T19:10:33.311Z,2.67
2018-09-08T19:13:03.243Z,2.60
2018-09-08T19:15:32.221Z,2.50
2018-09-08T19:18:01.291Z,2.20
2018-09-08T19:20:35.611Z,2.50
2018-09-08T19:23:04.889Z,2.20
2018-09-08T19:25:34.115Z,2.53
2018-09-08T19:28:03.254Z,2.60
2018-09-08T19:30:32.274Z,2.73
2018-09-08T19:33:01.297Z,3.40
2018-09-08T19:35:35.527Z,2.93
2018-09-08T19:38:05.299Z,2.47
2018-09-08T19:40:39.877Z,2.70
2018-09-08T19:43:08.876Z,2.73
2018-09-08T19:45:38.055Z,4.23
2018-09-08T19:48:15.130Z,3.03
2018-09-08T19:50:44.104Z,3.50
2018-09-08T19:53:18.369Z,3.10
2018-09-08T19:55:48.325Z,2.80
2018-09-08T19:58:22.627Z,2.70
2018-09-08T20:00:51.856Z,2.53
2018-09-08T20:03:20.815Z,2.73
2018-09-08T20:05:49.856Z,3.50
2018-09-08T20:08:18.869Z,3.37
2018-09-08T20:10:47.844Z,2.90
2018-09-08T20:13:16.870Z,3.80
2018-09-08T20:15:45.824Z,2.90
2018-09-08T20:18:14.789Z,3.13
2018-09-08T20:20:43.843Z,3.13
2018-09-08T20:23:12.857Z,3.60
2018-09-08T20:25:42.173Z,4.00
2018-09-08T20:28:11.146Z,3.57
2018-09-08T20:30:40.126Z,3.50
2018-09-08T20:33:09.135Z,4.07
2018-09-08T20:35:38.146Z,3.00
2018-09-08T20:38:07.141Z,4.50
2018-09-08T20:40:36.134Z,3.20
2018-09-08T20:43:05.218Z,3.53
2018-09-08T20:45:34.211Z,3.67
2018-09-08T20:48:03.169Z,3.53
2018-09-08T20:50:32.114Z,3.80
2018-09-08T20:53:01.136Z,3.50
2018-09-08T20:55:30.115Z,5.07
2018-09-08T20:57:59.085Z,4.60
2018-09-08T21:00:28.029Z,4.10
2018-09-08T21:02:57.015Z,4.40
2018-09-08T21:05:25.988Z,4.00
2018-09-08T21:07:55.071Z,3.90
2018-09-08T21:10:24.045Z,3.73
2018-09-08T21:12:53.009Z,3.57
2018-09-08T21:15:21.958Z,3.83
2018-09-08T21:17:50.961Z,3.37
2018-09-08T21:20:19.994Z,3.77
2018-09-08T21:22:48.967Z,3.67
2018-09-08T21:25:17.953Z,4.30
2018-09-08T21:27:47.055Z,4.60
2018-09-08T21:30:16.738Z,4.50
2018-09-08T21:32:45.751Z,5.20
2018-09-08T21:35:14.709Z,5.60
2018-09-08T21:37:43.657Z,4.40
2018-09-08T21:40:12.638Z,3.57
2018-09-08T21:42:41.652Z,4.00
2018-09-08T21:45:10.636Z,3.77
2018-09-08T21:47:39.573Z,3.90
2018-09-08T21:50:08.552Z,4.33
2018-09-08T21:52:37.499Z,3.93
2018-09-08T21:55:06.515Z,4.30
2018-09-08T21:57:35.470Z,4.23
2018-09-08T22:00:05.045Z,4.10
2018-09-08T22:02:34.006Z,4.90
2018-09-08T22:05:03.096Z,4.60
2018-09-08T22:07:32.105Z,3.80
2018-09-08T22:10:01.189Z,3.60
2018-09-08T22:12:30.146Z,3.43
2018-09-08T22:14:59.187Z,3.90
2018-09-08T22:17:28.211Z,4.20
2018-09-08T22:19:57.379Z,3.60
2018-09-08T22:22:26.333Z,3.90
2018-09-08T22:24:55.298Z,4.10
2018-09-08T22:27:24.355Z,4.00
2018-09-08T22:29:53.323Z,4.43
2018-09-08T22:32:22.274Z,3.77
2018-09-08T22:34:51.254Z,3.33
2018-09-08T22:37:20.221Z,3.20
2018-09-08T22:39:49.391Z,3.70
2018-09-08T22:42:18.367Z,4.70
2018-09-08T22:44:47.364Z,3.77
2018-09-08T22:47:16.332Z,3.33
2018-09-08T22:49:45.363Z,4.40
2018-09-08T22:52:14.333Z,4.20
2018-09-08T22:54:43.296Z,4.13
2018-09-08T22:57:12.257Z,3.70
2018-09-08T22:59:41.272Z,3.70
2018-09-08T23:02:10.269Z,3.70
2018-09-08T23:04:39.248Z,4.57
2018-09-08T23:07:08.185Z,3.80
2018-09-08T23:09:43.948Z,2.90
2018-09-08T23:12:12.980Z,3.10
2018-09-08T23:14:41.964Z,3.47
2018-09-08T23:17:10.932Z,2.93
2018-09-08T23:19:39.893Z,2.93
2018-09-08T23:22:08.849Z,3.17
2018-09-08T23:24:37.842Z,3.03
2018-09-08T23:27:06.804Z,3.37
2018-09-08T23:29:35.817Z,3.30
2018-09-08T23:32:04.777Z,3.57
2018-09-08T23:34:34.131Z,3.20
2018-09-08T23:37:03.157Z,3.20
2018-09-08T23:39:32.141Z,3.13
2018-09-08T23:42:01.117Z,3.60
2018-09-08T23:44:30.065Z,3.33
2018-09-08T23:46:59.045Z,3.73
2018-09-08T23:49:28.061Z,4.33
2018-09-08T23:51:57.032Z,3.70
2018-09-08T23:54:26.007Z,4.40
2018-09-08T23:56:55.969Z,3.43
2018-09-08T23:59:24.915Z,3.60
